Flight Track Log - Related Links

Times and Time Zones

All times are in EST time to prevent confusion due to time zone crossing. See the N53NW flight status page for this flight to view local times or setup timezone preferences in your user account.

Time Position Orientation Groundspeed Altitude Reporting Facility
EST Latitude Longitude Course Direction KTS MPH feet Rate Location/Type
Sun 11:14:11 PM 40.8167 -74.3167 114° Southeast 237 273 5,100  Level New TRACON
Sun 11:15:17 PM 40.7333 -74.3000 171° South 219 252 9,700 3,810 Climbing New TRACON
Sun 11:16:17 PM 40.6833 -74.2833 166° South 231 266 13,100 3,000 Climbing New TRACON
Sun 11:17:11 PM 40.6333 -74.2833 180° South 245 282 15,400 1,632 Climbing New TRACON
Sun 11:20:49 PM 40.3569 -74.3367 218° Southwest 281 323 20,500 1,804 Climbing Washington Center
Sun 11:21:47 PM 40.2989 -74.3758 207° Southwest 271 312 23,700 2,773 Climbing Washington Center
Sun 11:22:48 PM 40.2536 -74.4119 211° Southwest 227 261 26,000 1,721 Climbing Washington Center
Sun 11:23:49 PM 40.1997 -74.4508 209° Southwest 214 246 27,200 1,150 Climbing Washington Center
Sun 11:24:48 PM 40.1397 -74.4978 211° Southwest 231 266 28,300 1,160 Climbing Washington Center
Sun 11:25:48 PM 40.0736 -74.5450 209° Southwest 257 296 29,500 1,550 Climbing Washington Center
Sun 11:26:00 PM 39.9202 -74.3131 218° Southwest  Level FlightAware
Sun 11:26:48 PM 40.0031 -74.5894 206° Southwest 274 315 31,400  Level Washington Center
Sun 11:27:49 PM 39.9367 -74.6364 208° Southwest 274 315 32,900 1,462 Climbing Washington Center
Sun 11:28:47 PM 39.8683 -74.6806 206° Southwest 274 315 34,300 1,400 Climbing Washington Center
Sun 11:29:49 PM 39.8019 -74.7244 207° Southwest 279 321 35,700 1,377 Climbing Washington Center
Sun 11:30:49 PM 39.7336 -74.7714 208° Southwest 279 321 37,100 1,350 Climbing Washington Center
Sun 11:31:49 PM 39.6694 -74.8178 209° Southwest 274 315 38,400 1,050 Climbing Washington Center
Sun 11:32:49 PM 39.6092 -74.8589 208° Southwest 274 315 39,200 923 Climbing Washington Center
Sun 11:33:46 PM 39.5428 -74.9081 210° Southwest 274 315 40,200 1,077 Climbing Washington Center
Sun 11:34:46 PM 39.4783 -74.9489 206° Southwest 268 308 41,300 1,024 Climbing Washington Center
Sun 11:35:49 PM 39.4119 -74.9953 208° Southwest 263 303 42,300 829 Climbing Washington Center
Sun 11:36:49 PM 39.3497 -75.0361 207° Southwest 263 303 43,000 350 Climbing Washington Center
Sun 11:37:49 PM 39.2831 -75.0794 207° Southwest 263 303 43,000  Level Washington Center
Sun 11:38:47 PM 39.2125 -75.1281 208° Southwest 274 315 43,000  Level Washington Center
Sun 11:39:48 PM 39.1356 -75.1769 206° Southwest 292 336 43,000  Level Washington Center
Sun 11:40:49 PM 39.0586 -75.2308 209° Southwest 308 354 43,000  Level Washington Center
Sun 11:41:49 PM 38.9817 -75.2844 208° Southwest 314 361 43,000  Level Washington Center
Sun 11:42:49 PM 38.9006 -75.3383 207° Southwest 319 367 43,000  Level Washington Center
Sun 11:43:49 PM 38.8256 -75.3864 207° Southwest 319 367 43,000  Level Washington Center
Sun 11:44:49 PM 38.7486 -75.4400 209° Southwest 319 367 43,000  Level Washington Center
Sun 11:45:47 PM 38.6714 -75.4853 205° Southwest 319 367 43,000  Level Washington Center
Sun 11:46:49 PM 38.5922 -75.5386 208° Southwest 319 367 43,000  Level Washington Center
Sun 11:47:49 PM 38.5172 -75.5892 208° Southwest 319 367 43,000  Level Washington Center
Sun 11:48:49 PM 38.4422 -75.6419 209° Southwest 314 361 43,000  Level Washington Center
Sun 11:49:48 PM 38.3628 -75.6897 205° Southwest 314 361 43,000  Level Washington Center
Sun 11:50:49 PM 38.2856 -75.7372 206° Southwest 309 356 43,000  Level Washington Center
Sun 11:51:47 PM 38.2083 -75.7900 208° Southwest 309 356 43,000  Level Washington Center
Sun 11:52:49 PM 38.1292 -75.8372 205° Southwest 315 362 43,000  Level Washington Center
Sun 11:53:46 PM 38.0539 -75.8897 209° Southwest 315 362 43,000  Level Washington Center
Sun 11:54:48 PM 37.9767 -75.9394 207° Southwest 315 362 43,000  Level Washington Center
Sun 11:55:46 PM 37.8994 -75.9892 207° Southwest 315 362 43,000  Level Washington Center
Sun 11:56:46 PM 37.8200 -76.0414 207° Southwest 315 362 43,000  Level Washington Center
Sun 11:57:50 PM 37.7444 -76.0961 210° Southwest 315 362 43,000  Level Washington Center
Sun 11:58:47 PM 37.6650 -76.1453 206° Southwest 315 362 43,000  Level Washington Center
Sun 11:59:46 PM 37.5836 -76.1892 203° Southwest 321 369 43,000  Level Washington Center
Mon 12:00:46 AM 37.5042 -76.2383 206° Southwest 321 369 43,000  Level Washington Center
Mon 12:01:46 AM 37.4244 -76.2900 207° Southwest 321 369 43,000  Level Washington Center
Mon 12:02:49 AM 37.3428 -76.3442 208° Southwest 321 369 43,000  Level Washington Center
Mon 12:03:47 AM 37.2611 -76.3956 207° Southwest 321 369 43,000  Level Washington Center
Mon 12:04:47 AM 37.1794 -76.4442 205° Southwest 321 369 43,000  Level Washington Center
Mon 12:05:46 AM 37.0978 -76.4956 207° Southwest 321 369 43,000  Level Washington Center
Mon 12:06:47 AM 37.0158 -76.5492 208° Southwest 326 375 43,000  Level Washington Center
Mon 12:07:47 AM 36.9322 -76.6000 206° Southwest 326 375 43,000  Level Washington Center
Mon 12:08:46 AM 36.8503 -76.6508 206° Southwest 331 381 43,000  Level Washington Center
Mon 12:09:46 AM 36.7683 -76.7042 208° Southwest 331 381 43,000  Level Washington Center
Mon 12:10:47 AM 36.6803 -76.7653 209° Southwest 331 381 43,000  Level Washington Center
Mon 12:11:46 AM 36.6131 -76.8056 206° Southwest 331 381 43,000  Level Washington Center
Mon 12:12:46 AM 36.5208 -76.8583 205° Southwest 331 381 43,000  Level Washington Center
Mon 12:13:47 AM 36.4303 -76.9164 207° Southwest 331 381 43,000  Level Washington Center
Mon 12:14:47 AM 36.3464 -76.9689 207° Southwest 336 387 43,000  Level Washington Center
Mon 12:15:46 AM 36.2622 -77.0192 206° Southwest 336 387 43,000  Level Washington Center
Mon 12:16:47 AM 36.1783 -77.0664 204° Southwest 336 387 43,000  Level Washington Center
Mon 12:17:47 AM 36.0964 -77.1189 207° Southwest 336 387 43,000  Level Washington Center
Mon 12:18:49 AM 36.0247 -77.1664 208° Southwest 326 375 43,000  Level Washington Center
Mon 12:19:47 AM 35.9428 -77.2133 205° Southwest 331 381 43,000  Level Washington Center
Mon 12:20:48 AM 35.8544 -77.2681 207° Southwest 331 381 43,000  Level Washington Center
Mon 12:21:47 AM 35.7703 -77.3175 205° Southwest 331 381 43,000  Level Washington Center
Mon 12:22:49 AM 35.6858 -77.3694 207° Southwest 331 381 43,000  Level Washington Center
Mon 12:23:47 AM 35.6039 -77.4161 205° Southwest 331 381 43,000  Level Washington Center
Mon 12:24:46 AM 35.5194 -77.4703 208° Southwest 331 381 43,000  Level Washington Center
Mon 12:25:48 AM 35.4375 -77.5194 206° Southwest 331 381 43,000  Level Washington Center
Mon 12:26:46 AM 35.3553 -77.5733 208° Southwest 336 387 43,000  Level Washington Center
Mon 12:27:46 AM 35.2850 -77.6456 220° Southwest 336 387 43,000  Level Washington Center
Mon 12:29:35 AM 35.1592 -77.7744 220° Southwest 334 384 43,000  Level Jacksonville Center
Mon 12:30:35 AM 35.0931 -77.8419 220° Southwest 329 379 43,000  Level Jacksonville Center
Mon 12:31:35 AM 35.0231 -77.9119 219° Southwest 329 379 43,000  Level Jacksonville Center
Mon 12:32:35 AM 34.9592 -77.9867 224° Southwest 329 379 43,000  Level Jacksonville Center
Mon 12:33:35 AM 34.8889 -78.0589 220° Southwest 329 379 43,000  Level Jacksonville Center
Mon 12:34:35 AM 34.8164 -78.1236 216° Southwest 329 379 43,000  Level Jacksonville Center
Mon 12:35:36 AM 34.7481 -78.1956 221° Southwest 324 373 43,000  Level Jacksonville Center
Mon 12:36:35 AM 34.6842 -78.2700 224° Southwest 324 373 43,000  Level Jacksonville Center
Mon 12:37:35 AM 34.6158 -78.3417 221° Southwest 324 373 43,000  Level Jacksonville Center
Mon 12:38:35 AM 34.5475 -78.4133 221° Southwest 329 379 43,000  Level Jacksonville Center
Mon 12:39:35 AM 34.4769 -78.4800 218° Southwest 329 379 43,000  Level Jacksonville Center
Mon 12:40:35 AM 34.4083 -78.5489 220° Southwest 324 373 43,000  Level Jacksonville Center
Mon 12:41:35 AM 34.3400 -78.6203 221° Southwest 324 373 43,000  Level Jacksonville Center
Mon 12:42:35 AM 34.2581 -78.6719 208° Southwest 324 373 43,000  Level Jacksonville Center
Mon 12:43:35 AM 34.1675 -78.7064 197° South 331 381 43,000  Level Jacksonville Center
Mon 12:44:35 AM 34.0747 -78.7408 197° South 342 394 43,000  Level Jacksonville Center
Mon 12:45:35 AM 33.9819 -78.7753 197° South 342 394 43,000  Level Jacksonville Center
Mon 12:46:35 AM 33.8933 -78.8094 198° South 347 399 43,000  Level Jacksonville Center
Mon 12:47:35 AM 33.8006 -78.8439 197° South 347 399 43,000  Level Jacksonville Center
Mon 12:48:35 AM 33.7100 -78.8781 197° South 342 394 43,000  Level Jacksonville Center
Mon 12:49:35 AM 33.6192 -78.9119 197° South 342 394 43,000  Level Jacksonville Center
Mon 12:50:35 AM 33.5286 -78.9461 197° South 342 394 43,000  Level Jacksonville Center
Mon 12:51:35 AM 33.4378 -78.9800 197° South 342 394 43,000  Level Jacksonville Center
Mon 12:52:35 AM 33.3592 -79.0083 197° South 329 379 43,000  Level Jacksonville Center
Mon 12:53:35 AM 33.2817 -79.0664 212° Southwest 335 386 43,000  Level Jacksonville Center
Mon 12:54:35 AM 33.2064 -79.1292 215° Southwest 335 386 43,000  Level Jacksonville Center
Mon 12:55:35 AM 33.1311 -79.1894 214° Southwest 335 386 43,000  Level Jacksonville Center
Mon 12:56:35 AM 33.0536 -79.2519 214° Southwest 340 391 43,000  Level Jacksonville Center
Mon 12:57:35 AM 32.9761 -79.3144 214° Southwest 340 391 43,000  Level Jacksonville Center
Mon 12:58:35 AM 32.8983 -79.3769 214° Southwest 340 391 43,000  Level Jacksonville Center
Mon 12:59:35 AM 32.8228 -79.4394 215° Southwest 340 391 43,000  Level Jacksonville Center
Mon 01:00:35 AM 32.7453 -79.4992 213° Southwest 340 391 43,000  Level Jacksonville Center
Mon 01:01:35 AM 32.6675 -79.5636 215° Southwest 340 391 43,000  Level Jacksonville Center
Mon 01:02:35 AM 32.5839 -79.6308 214° Southwest 340 391 43,000  Level Jacksonville Center
Mon 01:03:35 AM 32.5061 -79.6928 214° Southwest 340 391 43,000  Level Jacksonville Center
Mon 01:04:35 AM 32.4261 -79.7547 213° Southwest 340 391 43,000  Level Jacksonville Center
Mon 01:05:35 AM 32.3506 -79.8186 216° Southwest 340 391 43,000  Level Jacksonville Center
Mon 01:06:35 AM 32.2706 -79.8828 214° Southwest 340 391 43,000  Level Jacksonville Center
Mon 01:07:35 AM 32.1947 -79.9442 214° Southwest 340 391 43,000  Level Jacksonville Center
Mon 01:08:35 AM 32.1169 -80.0056 214° Southwest 340 391 43,000  Level Jacksonville Center
Mon 01:09:35 AM 32.0389 -80.0669 214° Southwest 340 391 43,000  Level Jacksonville Center
Mon 01:10:35 AM 31.9611 -80.1303 215° Southwest 340 391 43,000  Level Jacksonville Center
Mon 01:11:35 AM 31.8808 -80.1917 213° Southwest 341 392 43,000  Level Jacksonville Center
Mon 01:12:35 AM 31.8031 -80.2550 215° Southwest 346 398 43,000  Level Jacksonville Center
Mon 01:13:35 AM 31.7228 -80.3158 213° Southwest 346 398 43,000  Level Jacksonville Center
Mon 01:14:35 AM 31.6447 -80.3767 214° Southwest 341 392 43,000  Level Jacksonville Center
Mon 01:15:35 AM 31.5667 -80.4397 215° Southwest 341 392 43,000  Level Jacksonville Center
Mon 01:16:35 AM 31.4967 -80.4925 213° Southwest 341 392 43,000  Level Jacksonville Center
Mon 01:17:35 AM 31.4164 -80.5556 214° Southwest 346 398 43,000  Level Jacksonville Center
Mon 01:18:35 AM 31.3381 -80.6183 214° Southwest 346 398 43,000  Level Jacksonville Center
Mon 01:19:35 AM 31.2556 -80.6761 211° Southwest 346 398 43,000  Level Jacksonville Center
Mon 01:20:35 AM 31.1775 -80.7389 215° Southwest 346 398 43,000  Level Jacksonville Center
Mon 01:21:35 AM 31.0969 -80.8011 213° Southwest 346 398 43,000  Level Jacksonville Center
Mon 01:22:35 AM 31.0186 -80.8636 214° Southwest 346 398 43,000  Level Jacksonville Center
Mon 01:23:35 AM 30.9300 -80.9283 212° Southwest 346 398 43,000  Level Jacksonville Center
Mon 01:24:35 AM 30.8475 -80.9906 213° Southwest 346 398 43,000  Level Jacksonville Center
Mon 01:25:35 AM 30.7689 -81.0528 214° Southwest 346 398 43,000  Level Jacksonville Center
Mon 01:26:35 AM 30.6906 -81.1147 214° Southwest 346 398 43,000  Level Jacksonville Center
Mon 01:27:35 AM 30.5969 -81.1525 199° South 346 398 43,000  Level Jacksonville Center
Mon 01:28:35 AM 30.4883 -81.1497 179° South 366 421 43,000  Level Jacksonville Center
Mon 01:29:35 AM 30.3819 -81.1444 178° South 373 429 43,000  Level Jacksonville Center
Mon 01:30:35 AM 30.2775 -81.1414 179° South 378 435 43,000  Level Jacksonville Center
Mon 01:31:35 AM 30.1689 -81.1386 179° South 384 442 43,000  Level Jacksonville Center
Mon 01:32:35 AM 30.0644 -81.1333 177° South 384 442 43,000  Level Jacksonville Center
Mon 01:33:35 AM 29.9578 -81.1306 179° South 384 442 43,000  Level Jacksonville Center
Mon 01:35:08 AM 29.8056 -81.1281 179° South 384 442 43,000  Level Miami Center
Mon 01:36:08 AM 29.6992 -81.1264 179° South 384 442 43,000  Level Miami Center
Mon 01:37:08 AM 29.5911 -81.1219 178° South 384 442 43,000  Level Miami Center
Mon 01:38:08 AM 29.4850 -81.1156 177° South 384 442 43,000 -100 Level Miami Center
Mon 01:39:08 AM 29.3819 -81.0708 159° South 384 442 42,800 -1,050 Descending Miami Center
Mon 01:40:08 AM 29.2769 -81.0267 160° South 394 453 40,900 -1,800 Descending Miami Center
Mon 01:41:08 AM 29.1761 -80.9800 158° South 394 453 39,200 -1,450 Descending Miami Center
Mon 01:42:08 AM 29.0772 -80.9358 159° South 394 453 38,000 -600 Descending Miami Center
Mon 01:43:08 AM 28.9764 -80.8894 158° South 389 448 38,000 -300 Level Miami Center
Mon 01:44:08 AM 28.8756 -80.8408 157° South 389 448 37,400 -1,250 Descending Miami Center
Mon 01:45:08 AM 28.7600 -80.7892 159° South 394 453 35,500 -1,750 Descending Miami Center
Mon 01:46:08 AM 28.6675 -80.7481 159° South 403 464 33,900 -1,600 Descending Miami Center
Mon 01:47:08 AM 28.5683 -80.7022 158° South 403 464 32,300 -1,800 Descending Miami Center
Mon 01:48:08 AM 28.4614 -80.6514 157° South 385 443 30,300 -1,800 Descending Miami Center
Mon 01:49:08 AM 28.3744 -80.6200 162° South 380 437 28,700 -1,650 Descending Miami Center
Mon 01:50:08 AM 28.2750 -80.5956 168° South 374 430 27,000 -1,700 Descending Miami Center
Mon 01:51:08 AM 28.1694 -80.5661 166° South 369 425 25,300 -1,700 Descending Miami Center
Mon 01:52:08 AM 28.0758 -80.5442 168° South 363 418 23,600 -1,700 Descending Miami Center
Mon 01:53:08 AM 27.9869 -80.5200 166° South 349 402 21,900 -1,650 Descending Miami Center
Mon 01:54:08 AM 27.8956 -80.4961 167° South 339 390 20,300 -1,650 Descending Miami Center
Mon 01:55:08 AM 27.7981 -80.4717 167° South 339 390 18,600 -1,550 Descending Miami Center
Mon 01:56:08 AM 27.7108 -80.4503 168° South 354 407 17,200 -1,650 Descending Miami Center
Mon 01:57:08 AM 27.6094 -80.4236 167° South 349 402 15,300 -1,700 Descending Miami Center
Mon 01:58:08 AM 27.5181 -80.3997 167° South 344 396 13,800 -1,550 Descending Miami Center
Mon 01:59:08 AM 27.4308 -80.3783 168° South 330 380 12,200 -1,450 Descending Miami Center
Mon 02:00:08 AM 27.3564 -80.3572 166° South 318 366 10,900 -1,100 Descending Miami Center
Mon 02:01:08 AM 27.2775 -80.3364 167° South 306 352 10,000 -450 Descending Miami Center
Mon 02:02:08 AM 27.1922 -80.3175 169° South 296 341 10,000 -50 Level Miami Center
Mon 02:03:08 AM 27.1133 -80.2939 165° South 296 341 9,900 -650 Descending Miami Center
Mon 02:04:08 AM 27.0408 -80.2756 167° South 284 327 8,700 -1,200 Descending Miami Center
Mon 02:05:08 AM 26.9786 -80.2597 167° South 264 304 7,500 -1,000 Descending Miami Center
Mon 02:06:08 AM 26.9122 -80.2439 168° South 253 291 6,700 -600 Descending Miami Center
Mon 02:07:08 AM 26.8372 -80.2278 169° South 253 291 6,300 -650 Descending Miami Center
Mon 02:08:08 AM 26.7689 -80.2072 165° South 254 292 5,400 -900 Descending Miami Center
Mon 02:10:48 AM 26.5983 -80.1697 172° South 223 257 3,000 -861 Descending Miami Center
Mon 02:11:30 AM 26.5569 -80.1547 162° South 231 266 2,500 -757 Descending Miami Center
Mon 02:12:31 AM 26.5008 -80.1414 168° South 190 219 1,700 -787 Descending Miami Center

Login

Don't have an account? Register now (free) for customized features, flight alerts, and more!